sensor_id;sensor_type;location;lat;lon;timestamp;pressure;altitude;pressure_sealevel;temperature;humidity
77077;BME280;66003;52.286;104.306;2023-03-02T00:01:56;96518.34;;;0.41;41.33
77077;BME280;66003;52.286;104.306;2023-03-02T00:04:30;96507.44;;;0.38;41.49
77077;BME280;66003;52.286;104.306;2023-03-02T00:07:01;96540.09;;;0.55;41.37
77077;BME280;66003;52.286;104.306;2023-03-02T00:09:28;96515.84;;;0.53;41.21
77077;BME280;66003;52.286;104.306;2023-03-02T00:11:55;96517.47;;;0.54;41.12
77077;BME280;66003;52.286;104.306;2023-03-02T00:14:21;96490.44;;;0.40;41.30
77077;BME280;66003;52.286;104.306;2023-03-02T00:16:48;96520.00;;;0.67;41.32
77077;BME280;66003;52.286;104.306;2023-03-02T00:19:14;96498.06;;;0.48;41.31
77077;BME280;66003;52.286;104.306;2023-03-02T00:21:40;96533.69;;;0.76;41.43
77077;BME280;66003;52.286;104.306;2023-03-02T00:24:06;96537.44;;;0.93;40.68
77077;BME280;66003;52.286;104.306;2023-03-02T00:26:33;96499.56;;;0.69;40.73
77077;BME280;66003;52.286;104.306;2023-03-02T00:29:00;96506.19;;;0.71;40.70
77077;BME280;66003;52.286;104.306;2023-03-02T00:31:26;96508.22;;;0.76;40.66
77077;BME280;66003;52.286;104.306;2023-03-02T00:33:52;96512.56;;;0.89;40.61
77077;BME280;66003;52.286;104.306;2023-03-02T00:36:22;96499.47;;;0.82;40.42
77077;BME280;66003;52.286;104.306;2023-03-02T00:38:49;96539.81;;;1.01;40.25
77077;BME280;66003;52.286;104.306;2023-03-02T00:41:17;96513.06;;;0.72;40.96
77077;BME280;66003;52.286;104.306;2023-03-02T00:43:46;96545.28;;;0.99;40.88
77077;BME280;66003;52.286;104.306;2023-03-02T00:46:18;96541.34;;;1.08;40.48
77077;BME280;66003;52.286;104.306;2023-03-02T00:48:45;96538.03;;;1.20;40.48
77077;BME280;66003;52.286;104.306;2023-03-02T00:51:12;96540.03;;;1.49;40.35
77077;BME280;66003;52.286;104.306;2023-03-02T00:53:39;96549.94;;;1.72;40.16
77077;BME280;66003;52.286;104.306;2023-03-02T00:56:07;96542.09;;;2.02;39.24
77077;BME280;66003;52.286;104.306;2023-03-02T00:58:34;96547.88;;;2.29;39.14
77077;BME280;66003;52.286;104.306;2023-03-02T01:01:07;96522.59;;;2.39;38.21
77077;BME280;66003;52.286;104.306;2023-03-02T01:03:34;96552.19;;;3.01;37.21
77077;BME280;66003;52.286;104.306;2023-03-02T01:06:00;96529.31;;;3.60;36.42
77077;BME280;66003;52.286;104.306;2023-03-02T01:08:26;96525.53;;;4.31;34.94
77077;BME280;66003;52.286;104.306;2023-03-02T01:10:52;96525.41;;;5.44;33.65
77077;BME280;66003;52.286;104.306;2023-03-02T01:13:19;96547.03;;;6.96;31.40
77077;BME280;66003;52.286;104.306;2023-03-02T01:15:45;96535.44;;;8.18;29.69
77077;BME280;66003;52.286;104.306;2023-03-02T01:18:11;96549.16;;;9.19;28.31
77077;BME280;66003;52.286;104.306;2023-03-02T01:20:37;96550.47;;;9.93;27.14
77077;BME280;66003;52.286;104.306;2023-03-02T01:23:04;96550.03;;;10.70;26.79
77077;BME280;66003;52.286;104.306;2023-03-02T01:25:30;96524.19;;;11.00;26.25
77077;BME280;66003;52.286;104.306;2023-03-02T01:27:56;96549.56;;;11.46;25.29
77077;BME280;66003;52.286;104.306;2023-03-02T01:30:23;96531.09;;;11.50;25.30
77077;BME280;66003;52.286;104.306;2023-03-02T01:32:49;96534.00;;;11.53;25.24
77077;BME280;66003;52.286;104.306;2023-03-02T01:35:15;96546.69;;;11.77;25.04
77077;BME280;66003;52.286;104.306;2023-03-02T01:37:42;96530.06;;;12.09;24.41
77077;BME280;66003;52.286;104.306;2023-03-02T01:40:11;96556.63;;;12.53;23.63
77077;BME280;66003;52.286;104.306;2023-03-02T01:42:49;96552.94;;;13.53;23.92
77077;BME280;66003;52.286;104.306;2023-03-02T01:45:49;96552.97;;;13.99;24.36
77077;BME280;66003;52.286;104.306;2023-03-02T01:48:48;96548.19;;;13.96;21.62
77077;BME280;66003;52.286;104.306;2023-03-02T01:51:20;96527.16;;;13.84;21.56
77077;BME280;66003;52.286;104.306;2023-03-02T01:53:53;96547.19;;;14.38;21.81
77077;BME280;66003;52.286;104.306;2023-03-02T01:56:22;96560.63;;;16.01;22.04
77077;BME280;66003;52.286;104.306;2023-03-02T01:59:11;96563.72;;;16.47;22.32
77077;BME280;66003;52.286;104.306;2023-03-02T02:01:40;96526.50;;;16.27;20.55
77077;BME280;66003;52.286;104.306;2023-03-02T02:04:08;96545.88;;;17.34;19.42
77077;BME280;66003;52.286;104.306;2023-03-02T02:06:40;96546.81;;;18.54;21.54
77077;BME280;66003;52.286;104.306;2023-03-02T02:09:13;96559.38;;;18.67;19.36
77077;BME280;66003;52.286;104.306;2023-03-02T02:11:41;96551.28;;;18.96;17.52
77077;BME280;66003;52.286;104.306;2023-03-02T02:14:07;96552.09;;;19.68;17.77
77077;BME280;66003;52.286;104.306;2023-03-02T02:16:34;96539.97;;;19.44;16.92
77077;BME280;66003;52.286;104.306;2023-03-02T02:21:47;96530.81;;;19.91;16.36
77077;BME280;66003;52.286;104.306;2023-03-02T02:24:34;96533.78;;;20.43;16.03
77077;BME280;66003;52.286;104.306;2023-03-02T02:27:03;96524.75;;;20.39;16.10
77077;BME280;66003;52.286;104.306;2023-03-02T02:29:33;96550.56;;;20.57;16.04
77077;BME280;66003;52.286;104.306;2023-03-02T02:32:15;96545.81;;;21.03;15.46
77077;BME280;66003;52.286;104.306;2023-03-02T02:37:30;96525.78;;;20.83;15.68
77077;BME280;66003;52.286;104.306;2023-03-02T02:39:59;96544.34;;;21.05;15.76
77077;BME280;66003;52.286;104.306;2023-03-02T02:42:29;96523.72;;;21.16;15.55
77077;BME280;66003;52.286;104.306;2023-03-02T02:45:00;96512.94;;;21.44;15.67
77077;BME280;66003;52.286;104.306;2023-03-02T02:47:27;96514.91;;;21.32;15.63
77077;BME280;66003;52.286;104.306;2023-03-02T02:49:55;96537.44;;;21.72;16.47
77077;BME280;66003;52.286;104.306;2023-03-02T02:52:24;96538.47;;;21.68;15.23
77077;BME280;66003;52.286;104.306;2023-03-02T02:54:53;96531.09;;;21.04;15.38
77077;BME280;66003;52.286;104.306;2023-03-02T02:57:23;96509.28;;;20.76;15.70
77077;BME280;66003;52.286;104.306;2023-03-02T02:59:53;96508.94;;;19.12;16.98
77077;BME280;66003;52.286;104.306;2023-03-02T03:02:23;96530.75;;;17.07;18.86
77077;BME280;66003;52.286;104.306;2023-03-02T03:04:49;96504.63;;;15.31;20.98
77077;BME280;66003;52.286;104.306;2023-03-02T03:07:21;96505.38;;;14.59;21.27
77077;BME280;66003;52.286;104.306;2023-03-02T03:09:52;96507.66;;;15.74;20.55
77077;BME280;66003;52.286;104.306;2023-03-02T03:12:22;96515.69;;;17.58;19.53
77077;BME280;66003;52.286;104.306;2023-03-02T03:14:49;96511.16;;;18.90;17.90
77077;BME280;66003;52.286;104.306;2023-03-02T03:17:17;96516.13;;;19.92;17.48
77077;BME280;66003;52.286;104.306;2023-03-02T03:19:44;96495.81;;;20.10;16.71
77077;BME280;66003;52.286;104.306;2023-03-02T03:22:13;96498.34;;;20.27;16.93
77077;BME280;66003;52.286;104.306;2023-03-02T03:24:41;96518.06;;;20.36;16.83
77077;BME280;66003;52.286;104.306;2023-03-02T03:27:10;96512.25;;;19.80;17.04
77077;BME280;66003;52.286;104.306;2023-03-02T03:29:38;96512.19;;;19.06;17.75
77077;BME280;66003;52.286;104.306;2023-03-02T03:32:05;96490.91;;;17.30;19.08
77077;BME280;66003;52.286;104.306;2023-03-02T03:34:33;96531.31;;;15.55;20.26
77077;BME280;66003;52.286;104.306;2023-03-02T03:37:07;96497.09;;;13.82;22.07
77077;BME280;66003;52.286;104.306;2023-03-02T03:39:33;96523.72;;;12.71;23.07
77077;BME280;66003;52.286;104.306;2023-03-02T03:41:59;96515.91;;;11.69;24.01
77077;BME280;66003;52.286;104.306;2023-03-02T03:44:26;96543.69;;;11.05;25.15
77077;BME280;66003;52.286;104.306;2023-03-02T03:46:52;96507.72;;;10.18;25.67
77077;BME280;66003;52.286;104.306;2023-03-02T03:49:18;96548.59;;;10.19;25.96
77077;BME280;66003;52.286;104.306;2023-03-02T03:51:44;96541.94;;;9.96;26.31
77077;BME280;66003;52.286;104.306;2023-03-02T03:54:11;96534.75;;;9.76;26.38
77077;BME280;66003;52.286;104.306;2023-03-02T03:56:42;96538.22;;;9.56;26.76
77077;BME280;66003;52.286;104.306;2023-03-02T03:59:13;96516.63;;;9.43;27.08
77077;BME280;66003;52.286;104.306;2023-03-02T04:01:45;96541.16;;;9.45;27.03
77077;BME280;66003;52.286;104.306;2023-03-02T04:04:15;96538.75;;;9.18;27.54
77077;BME280;66003;52.286;104.306;2023-03-02T04:06:42;96534.75;;;9.20;27.88
77077;BME280;66003;52.286;104.306;2023-03-02T04:09:08;96540.09;;;9.35;27.73
77077;BME280;66003;52.286;104.306;2023-03-02T04:11:39;96527.84;;;9.29;27.32
77077;BME280;66003;52.286;104.306;2023-03-02T04:14:07;96545.44;;;9.30;27.60
77077;BME280;66003;52.286;104.306;2023-03-02T04:16:37;96536.38;;;9.31;27.90
77077;BME280;66003;52.286;104.306;2023-03-02T04:19:09;96509.41;;;9.33;28.15
77077;BME280;66003;52.286;104.306;2023-03-02T04:21:36;96539.28;;;9.91;27.54
77077;BME280;66003;52.286;104.306;2023-03-02T04:24:03;96528.31;;;9.97;27.39
77077;BME280;66003;52.286;104.306;2023-03-02T04:26:29;96524.56;;;10.19;26.76
77077;BME280;66003;52.286;104.306;2023-03-02T04:28:55;96502.91;;;10.25;26.51
77077;BME280;66003;52.286;104.306;2023-03-02T04:31:21;96479.16;;;10.24;26.28
77077;BME280;66003;52.286;104.306;2023-03-02T04:33:47;96523.31;;;10.70;27.22
77077;BME280;66003;52.286;104.306;2023-03-02T04:36:13;96497.28;;;10.86;26.62
77077;BME280;66003;52.286;104.306;2023-03-02T04:38:39;96482.56;;;10.89;26.37
77077;BME280;66003;52.286;104.306;2023-03-02T04:41:06;96508.00;;;11.25;25.71
77077;BME280;66003;52.286;104.306;2023-03-02T04:43:32;96450.44;;;10.94;25.89
77077;BME280;66003;52.286;104.306;2023-03-02T04:45:58;96522.00;;;11.46;25.59
77077;BME280;66003;52.286;104.306;2023-03-02T04:48:24;96481.69;;;11.37;25.51
77077;BME280;66003;52.286;104.306;2023-03-02T04:50:50;96501.97;;;11.43;26.27
77077;BME280;66003;52.286;104.306;2023-03-02T04:53:17;96512.53;;;11.58;27.72
77077;BME280;66003;52.286;104.306;2023-03-02T04:55:43;96466.88;;;11.45;28.10
77077;BME280;66003;52.286;104.306;2023-03-02T04:58:09;96486.03;;;11.62;26.58
77077;BME280;66003;52.286;104.306;2023-03-02T05:00:35;96469.09;;;11.38;27.13
77077;BME280;66003;52.286;104.306;2023-03-02T05:03:02;96459.00;;;11.30;27.42
77077;BME280;66003;52.286;104.306;2023-03-02T05:05:29;96457.66;;;11.32;28.20
77077;BME280;66003;52.286;104.306;2023-03-02T05:07:55;96465.06;;;11.40;28.10
77077;BME280;66003;52.286;104.306;2023-03-02T05:10:24;96469.28;;;11.46;27.57
77077;BME280;66003;52.286;104.306;2023-03-02T05:12:50;96480.09;;;11.65;27.66
77077;BME280;66003;52.286;104.306;2023-03-02T05:15:37;96451.78;;;11.59;27.80
77077;BME280;66003;52.286;104.306;2023-03-02T05:18:06;96449.78;;;11.70;27.92
77077;BME280;66003;52.286;104.306;2023-03-02T05:20:34;96458.06;;;11.78;28.33
77077;BME280;66003;52.286;104.306;2023-03-02T05:23:03;96467.59;;;11.89;28.56
77077;BME280;66003;52.286;104.306;2023-03-02T05:25:33;96460.53;;;11.99;28.48
77077;BME280;66003;52.286;104.306;2023-03-02T05:28:01;96439.13;;;11.93;28.40
77077;BME280;66003;52.286;104.306;2023-03-02T05:30:27;96461.34;;;12.42;27.48
77077;BME280;66003;52.286;104.306;2023-03-02T05:32:53;96456.69;;;12.28;27.97
77077;BME280;66003;52.286;104.306;2023-03-02T05:35:21;96424.94;;;12.17;27.83
77077;BME280;66003;52.286;104.306;2023-03-02T05:37:47;96421.69;;;12.20;28.36
77077;BME280;66003;52.286;104.306;2023-03-02T05:40:16;96447.94;;;12.42;27.96
77077;BME280;66003;52.286;104.306;2023-03-02T05:42:44;96448.13;;;12.69;27.12
77077;BME280;66003;52.286;104.306;2023-03-02T05:45:22;96452.56;;;12.97;26.84
77077;BME280;66003;52.286;104.306;2023-03-02T05:47:49;96425.00;;;12.92;26.46
77077;BME280;66003;52.286;104.306;2023-03-02T05:50:15;96446.41;;;13.16;26.64
77077;BME280;66003;52.286;104.306;2023-03-02T05:52:41;96449.94;;;13.30;26.63
77077;BME280;66003;52.286;104.306;2023-03-02T05:55:10;96410.97;;;13.14;26.99
77077;BME280;66003;52.286;104.306;2023-03-02T05:57:38;96436.28;;;13.45;27.12
77077;BME280;66003;52.286;104.306;2023-03-02T06:00:05;96435.09;;;13.51;26.75
77077;BME280;66003;52.286;104.306;2023-03-02T06:02:32;96426.72;;;13.53;26.70
77077;BME280;66003;52.286;104.306;2023-03-02T06:04:58;96434.31;;;13.64;26.31
77077;BME280;66003;52.286;104.306;2023-03-02T06:07:24;96430.38;;;13.89;26.35
77077;BME280;66003;52.286;104.306;2023-03-02T06:09:52;96418.44;;;14.09;26.33
77077;BME280;66003;52.286;104.306;2023-03-02T06:12:18;96427.78;;;14.39;25.81
77077;BME280;66003;52.286;104.306;2023-03-02T06:14:44;96402.78;;;14.52;25.51
77077;BME280;66003;52.286;104.306;2023-03-02T06:17:11;96423.41;;;14.93;25.42
77077;BME280;66003;52.286;104.306;2023-03-02T06:19:37;96424.25;;;15.02;25.34
77077;BME280;66003;52.286;104.306;2023-03-02T06:22:03;96432.97;;;15.21;24.71
77077;BME280;66003;52.286;104.306;2023-03-02T06:24:29;96406.47;;;15.14;23.46
77077;BME280;66003;52.286;104.306;2023-03-02T06:26:56;96430.81;;;15.32;23.74
77077;BME280;66003;52.286;104.306;2023-03-02T06:29:22;96432.03;;;15.48;24.27
77077;BME280;66003;52.286;104.306;2023-03-02T06:31:48;96434.91;;;15.74;24.55
77077;BME280;66003;52.286;104.306;2023-03-02T06:34:14;96422.47;;;15.95;23.46
77077;BME280;66003;52.286;104.306;2023-03-02T06:36:41;96405.41;;;16.17;22.34
77077;BME280;66003;52.286;104.306;2023-03-02T06:39:08;96415.66;;;16.54;23.34
77077;BME280;66003;52.286;104.306;2023-03-02T06:41:42;96423.84;;;16.89;23.27
77077;BME280;66003;52.286;104.306;2023-03-02T06:44:09;96381.75;;;16.79;22.76
77077;BME280;66003;52.286;104.306;2023-03-02T06:46:36;96429.53;;;17.56;23.02
77077;BME280;66003;52.286;104.306;2023-03-02T06:49:02;96415.56;;;17.37;22.55
77077;BME280;66003;52.286;104.306;2023-03-02T06:51:28;96429.38;;;17.36;22.65
77077;BME280;66003;52.286;104.306;2023-03-02T06:53:55;96414.16;;;17.31;22.66
77077;BME280;66003;52.286;104.306;2023-03-02T06:56:23;96401.63;;;17.09;22.98
77077;BME280;66003;52.286;104.306;2023-03-02T06:58:49;96404.59;;;17.42;22.27
77077;BME280;66003;52.286;104.306;2023-03-02T07:01:15;96416.22;;;17.34;21.45
77077;BME280;66003;52.286;104.306;2023-03-02T07:03:41;96389.84;;;17.31;21.18
77077;BME280;66003;52.286;104.306;2023-03-02T07:06:09;96410.44;;;17.53;20.83
77077;BME280;66003;52.286;104.306;2023-03-02T07:08:36;96397.69;;;17.71;20.77
77077;BME280;66003;52.286;104.306;2023-03-02T07:11:09;96404.97;;;17.87;19.80
77077;BME280;66003;52.286;104.306;2023-03-02T07:13:36;96398.84;;;17.70;19.81
77077;BME280;66003;52.286;104.306;2023-03-02T07:16:10;96362.84;;;17.22;20.44
77077;BME280;66003;52.286;104.306;2023-03-02T07:18:37;96407.00;;;17.26;20.19
77077;BME280;66003;52.286;104.306;2023-03-02T07:21:03;96394.78;;;17.03;19.63
77077;BME280;66003;52.286;104.306;2023-03-02T07:23:29;96403.50;;;17.35;19.68
77077;BME280;66003;52.286;104.306;2023-03-02T07:25:55;96390.50;;;16.93;19.64
77077;BME280;66003;52.286;104.306;2023-03-02T07:28:22;96379.06;;;16.71;19.40
77077;BME280;66003;52.286;104.306;2023-03-02T07:30:51;96395.06;;;16.58;19.97
77077;BME280;66003;52.286;104.306;2023-03-02T07:33:20;96366.25;;;16.19;19.64
77077;BME280;66003;52.286;104.306;2023-03-02T07:35:47;96389.19;;;16.00;19.77
77077;BME280;66003;52.286;104.306;2023-03-02T07:38:13;96383.72;;;15.74;20.65
77077;BME280;66003;52.286;104.306;2023-03-02T07:40:40;96391.88;;;15.60;20.15
77077;BME280;66003;52.286;104.306;2023-03-02T07:43:07;96375.56;;;15.57;20.36
77077;BME280;66003;52.286;104.306;2023-03-02T07:45:34;96370.97;;;15.57;20.65
77077;BME280;66003;52.286;104.306;2023-03-02T07:48:00;96383.84;;;15.69;20.21
77077;BME280;66003;52.286;104.306;2023-03-02T07:50:26;96371.59;;;15.63;20.21
77077;BME280;66003;52.286;104.306;2023-03-02T07:52:52;96378.59;;;15.64;20.23
77077;BME280;66003;52.286;104.306;2023-03-02T07:55:18;96375.22;;;15.58;20.96
77077;BME280;66003;52.286;104.306;2023-03-02T07:57:45;96351.00;;;15.36;20.40
77077;BME280;66003;52.286;104.306;2023-03-02T08:00:12;96354.75;;;15.26;20.27
77077;BME280;66003;52.286;104.306;2023-03-02T08:02:39;96372.72;;;15.39;20.36
77077;BME280;66003;52.286;104.306;2023-03-02T08:05:06;96328.84;;;15.08;19.98
77077;BME280;66003;52.286;104.306;2023-03-02T08:07:33;96377.13;;;15.35;20.27
77077;BME280;66003;52.286;104.306;2023-03-02T08:09:59;96366.44;;;15.44;20.07
77077;BME280;66003;52.286;104.306;2023-03-02T08:12:28;96359.31;;;15.48;19.89
77077;BME280;66003;52.286;104.306;2023-03-02T08:14:55;96373.91;;;15.78;20.00
77077;BME280;66003;52.286;104.306;2023-03-02T08:17:21;96349.16;;;15.76;20.13
77077;BME280;66003;52.286;104.306;2023-03-02T08:19:47;96318.84;;;15.70;19.77
77077;BME280;66003;52.286;104.306;2023-03-02T08:22:13;96369.22;;;16.01;19.95
77077;BME280;66003;52.286;104.306;2023-03-02T08:24:39;96360.41;;;15.69;20.12
77077;BME280;66003;52.286;104.306;2023-03-02T08:27:06;96369.34;;;15.96;20.46
77077;BME280;66003;52.286;104.306;2023-03-02T08:29:32;96360.41;;;15.69;20.59
77077;BME280;66003;52.286;104.306;2023-03-02T08:31:59;96324.72;;;15.33;20.95
77077;BME280;66003;52.286;104.306;2023-03-02T08:34:26;96368.06;;;15.53;21.26
77077;BME280;66003;52.286;104.306;2023-03-02T08:36:52;96371.69;;;15.80;21.13
77077;BME280;66003;52.286;104.306;2023-03-02T08:39:18;96368.66;;;15.50;21.55
77077;BME280;66003;52.286;104.306;2023-03-02T08:41:49;96348.53;;;15.17;22.05
77077;BME280;66003;52.286;104.306;2023-03-02T08:44:15;96375.75;;;15.15;21.66
77077;BME280;66003;52.286;104.306;2023-03-02T08:46:43;96341.38;;;14.90;21.45
77077;BME280;66003;52.286;104.306;2023-03-02T08:49:08;96367.97;;;15.14;22.51
77077;BME280;66003;52.286;104.306;2023-03-02T08:51:35;96358.00;;;14.70;21.89
77077;BME280;66003;52.286;104.306;2023-03-02T08:54:01;96347.44;;;14.51;22.30
77077;BME280;66003;52.286;104.306;2023-03-02T08:56:29;96360.88;;;14.51;22.47
77077;BME280;66003;52.286;104.306;2023-03-02T08:59:00;96322.97;;;14.25;22.42
77077;BME280;66003;52.286;104.306;2023-03-02T09:01:29;96325.53;;;14.17;22.31
77077;BME280;66003;52.286;104.306;2023-03-02T09:03:57;96328.66;;;14.10;22.49
77077;BME280;66003;52.286;104.306;2023-03-02T09:06:28;96333.94;;;14.01;22.33
77077;BME280;66003;52.286;104.306;2023-03-02T09:08:55;96355.44;;;14.01;22.52
77077;BME280;66003;52.286;104.306;2023-03-02T09:11:21;96348.06;;;13.93;22.59
77077;BME280;66003;52.286;104.306;2023-03-02T09:13:47;96328.38;;;13.70;22.84
77077;BME280;66003;52.286;104.306;2023-03-02T09:16:14;96359.44;;;13.77;22.31
77077;BME280;66003;52.286;104.306;2023-03-02T09:18:40;96348.69;;;13.63;22.71
77077;BME280;66003;52.286;104.306;2023-03-02T09:21:07;96323.78;;;13.30;22.88
77077;BME280;66003;52.286;104.306;2023-03-02T09:23:33;96342.69;;;13.38;22.68
77077;BME280;66003;52.286;104.306;2023-03-02T09:26:02;96332.03;;;13.20;23.54
77077;BME280;66003;52.286;104.306;2023-03-02T09:28:28;96346.66;;;13.27;22.83
77077;BME280;66003;52.286;104.306;2023-03-02T09:30:59;96335.81;;;13.19;23.35
77077;BME280;66003;52.286;104.306;2023-03-02T09:33:26;96351.50;;;13.25;23.31
77077;BME280;66003;52.286;104.306;2023-03-02T09:35:52;96320.34;;;13.11;23.73
77077;BME280;66003;52.286;104.306;2023-03-02T09:38:19;96345.44;;;13.20;23.51
77077;BME280;66003;52.286;104.306;2023-03-02T09:46:08;96343.69;;;13.10;24.24
77077;BME280;66003;52.286;104.306;2023-03-02T09:49:00;96340.69;;;12.98;24.52
77077;BME280;66003;52.286;104.306;2023-03-02T09:54:37;96345.00;;;12.80;24.67
77077;BME280;66003;52.286;104.306;2023-03-02T09:57:35;96324.16;;;12.58;24.62
77077;BME280;66003;52.286;104.306;2023-03-02T10:00:06;96345.81;;;12.62;24.51
77077;BME280;66003;52.286;104.306;2023-03-02T10:02:48;96337.19;;;12.46;25.36
77077;BME280;66003;52.286;104.306;2023-03-02T10:05:30;96345.09;;;12.38;24.78
77077;BME280;66003;52.286;104.306;2023-03-02T10:07:59;96345.81;;;12.24;25.29
77077;BME280;66003;52.286;104.306;2023-03-02T10:13:17;96317.25;;;11.77;25.64
77077;BME280;66003;52.286;104.306;2023-03-02T10:18:42;96344.72;;;11.59;25.84
77077;BME280;66003;52.286;104.306;2023-03-02T10:34:47;96317.03;;;10.24;28.77
77077;BME280;66003;52.286;104.306;2023-03-02T10:37:20;96320.81;;;10.13;28.79
77077;BME280;66003;52.286;104.306;2023-03-02T10:39:50;96342.72;;;10.10;29.03
77077;BME280;66003;52.286;104.306;2023-03-02T10:42:36;96336.38;;;9.96;29.51
77077;BME280;66003;52.286;104.306;2023-03-02T10:45:15;96348.44;;;9.83;29.93
77077;BME280;66003;52.286;104.306;2023-03-02T10:47:43;96303.75;;;9.50;29.81
77077;BME280;66003;52.286;104.306;2023-03-02T10:50:22;96339.19;;;9.60;29.87
77077;BME280;66003;52.286;104.306;2023-03-02T10:52:49;96346.44;;;9.55;30.54
77077;BME280;66003;52.286;104.306;2023-03-02T10:55:16;96330.72;;;9.38;30.92
77077;BME280;66003;52.286;104.306;2023-03-02T10:57:44;96325.13;;;9.34;31.08
77077;BME280;66003;52.286;104.306;2023-03-02T11:00:24;96338.22;;;9.31;30.43
77077;BME280;66003;52.286;104.306;2023-03-02T11:02:59;96345.72;;;9.14;31.64
77077;BME280;66003;52.286;104.306;2023-03-02T11:05:34;96329.75;;;9.03;31.45
77077;BME280;66003;52.286;104.306;2023-03-02T11:08:08;96350.00;;;9.04;31.66
77077;BME280;66003;52.286;104.306;2023-03-02T11:10:36;96361.97;;;8.97;32.22
77077;BME280;66003;52.286;104.306;2023-03-02T11:13:18;96356.94;;;8.95;31.21
77077;BME280;66003;52.286;104.306;2023-03-02T11:15:50;96355.63;;;8.83;32.44
77077;BME280;66003;52.286;104.306;2023-03-02T11:18:33;96359.09;;;8.73;32.48
77077;BME280;66003;52.286;104.306;2023-03-02T11:26:49;96288.97;;;8.12;32.55
77077;BME280;66003;52.286;104.306;2023-03-02T11:29:33;96362.53;;;8.48;33.62
77077;BME280;66003;52.286;104.306;2023-03-02T11:32:05;96372.09;;;8.44;33.46
77077;BME280;66003;52.286;104.306;2023-03-02T11:42:40;96382.16;;;8.22;33.96
77077;BME280;66003;52.286;104.306;2023-03-02T11:45:32;96376.25;;;8.15;32.86
77077;BME280;66003;52.286;104.306;2023-03-02T11:48:04;96381.81;;;8.03;33.95
77077;BME280;66003;52.286;104.306;2023-03-02T11:50:36;96374.34;;;7.95;33.99
77077;BME280;66003;52.286;104.306;2023-03-02T11:53:08;96347.63;;;7.70;33.58
77077;BME280;66003;52.286;104.306;2023-03-02T11:55:44;96379.34;;;7.81;33.21
77077;BME280;66003;52.286;104.306;2023-03-02T11:58:27;96357.69;;;7.52;33.30
77077;BME280;66003;52.286;104.306;2023-03-02T12:00:54;96365.88;;;7.46;34.62
77077;BME280;66003;52.286;104.306;2023-03-02T12:03:42;96381.38;;;7.59;33.54
77077;BME280;66003;52.286;104.306;2023-03-02T12:08:41;96371.97;;;7.41;35.06
77077;BME280;66003;52.286;104.306;2023-03-02T12:11:29;96337.47;;;7.04;36.03
77077;BME280;66003;52.286;104.306;2023-03-02T12:14:02;96359.09;;;7.18;35.44
77077;BME280;66003;52.286;104.306;2023-03-02T12:19:24;96381.72;;;7.25;35.19
77077;BME280;66003;52.286;104.306;2023-03-02T12:22:04;96373.69;;;7.20;35.37
77077;BME280;66003;52.286;104.306;2023-03-02T12:24:37;96381.66;;;7.20;34.62
77077;BME280;66003;52.286;104.306;2023-03-02T12:27:06;96383.50;;;7.15;35.12
77077;BME280;66003;52.286;104.306;2023-03-02T12:33:17;96372.03;;;7.09;34.35
77077;BME280;66003;52.286;104.306;2023-03-02T12:35:44;96349.03;;;6.83;35.67
77077;BME280;66003;52.286;104.306;2023-03-02T12:38:28;96371.16;;;6.94;35.54
77077;BME280;66003;52.286;104.306;2023-03-02T12:46:28;96379.03;;;6.83;35.47
77077;BME280;66003;52.286;104.306;2023-03-02T12:54:22;96350.22;;;6.38;35.99
77077;BME280;66003;52.286;104.306;2023-03-02T12:56:49;96369.97;;;6.47;36.55
77077;BME280;66003;52.286;104.306;2023-03-02T12:59:24;96338.63;;;6.18;36.71
77077;BME280;66003;52.286;104.306;2023-03-02T13:01:51;96364.19;;;6.24;36.94
77077;BME280;66003;52.286;104.306;2023-03-02T13:04:24;96366.16;;;6.11;37.55
77077;BME280;66003;52.286;104.306;2023-03-02T13:06:52;96338.13;;;5.94;37.00
77077;BME280;66003;52.286;104.306;2023-03-02T13:09:19;96363.94;;;6.03;36.98
77077;BME280;66003;52.286;104.306;2023-03-02T13:11:47;96377.72;;;6.00;37.78
77077;BME280;66003;52.286;104.306;2023-03-02T13:14:24;96380.88;;;5.97;37.20
77077;BME280;66003;52.286;104.306;2023-03-02T13:16:55;96380.50;;;5.89;38.04
77077;BME280;66003;52.286;104.306;2023-03-02T13:19:23;96337.19;;;5.61;38.27
77077;BME280;66003;52.286;104.306;2023-03-02T13:21:50;96344.22;;;5.51;38.61
77077;BME280;66003;52.286;104.306;2023-03-02T13:27:23;96361.34;;;5.43;37.94
77077;BME280;66003;52.286;104.306;2023-03-02T13:29:50;96359.69;;;5.37;38.74
77077;BME280;66003;52.286;104.306;2023-03-02T13:32:24;96388.72;;;5.49;38.89
77077;BME280;66003;52.286;104.306;2023-03-02T13:34:55;96380.22;;;5.47;38.84
77077;BME280;66003;52.286;104.306;2023-03-02T13:37:39;96375.78;;;5.30;38.86
77077;BME280;66003;52.286;104.306;2023-03-02T13:42:54;96387.78;;;5.38;37.44
77077;BME280;66003;52.286;104.306;2023-03-02T13:45:24;96334.75;;;4.94;38.48
77077;BME280;66003;52.286;104.306;2023-03-02T13:47:51;96360.94;;;5.13;38.36
77077;BME280;66003;52.286;104.306;2023-03-02T13:50:21;96354.03;;;5.12;39.25
77077;BME280;66003;52.286;104.306;2023-03-02T13:52:48;96392.47;;;5.31;38.54
77077;BME280;66003;52.286;104.306;2023-03-02T13:55:19;96331.22;;;4.89;38.84
77077;BME280;66003;52.286;104.306;2023-03-02T13:57:48;96384.44;;;5.26;39.96
77077;BME280;66003;52.286;104.306;2023-03-02T14:00:24;96370.31;;;5.20;39.64
77077;BME280;66003;52.286;104.306;2023-03-02T14:02:52;96293.22;;;4.61;39.43
77077;BME280;66003;52.286;104.306;2023-03-02T14:05:20;96367.47;;;5.05;39.85
77077;BME280;66003;52.286;104.306;2023-03-02T14:07:48;96383.13;;;5.06;39.05